Portada
METAR-TAF:

METAR-TAF

Aeropuertos :

Aeropuerto Internacional Yundum

Banjul, Gambia

latitud: 13-21N, longitud: 016-48W, altitud: 36 m

Observación

El informe se hizo hace 49 minutos, a las 16:00 UTC
Viento 4 kt del oeste-noroeste
Temperatura 28°C
Humedad 51%
Presión 1009 hPa
Visibilidad 10 km o más
sin nubes por debajo de 1500 m y sin presencia de cumulonimbus.

METAR: GBYD 151600Z 29004KT CAVOK 28/17 Q1009

Hora: 16:49 (16:49 UTC)

Pronóstico

El informe se hizo hace 5 horas y 19 minutos, a las 11:30 UTC
Pronóstico válido del 15 a las 12 UTC al 16 a las 18 UTC
Viento 6 kt del norte
Visibilidad 10 km o más
sin nubes por debajo de 1500 m y sin presencia de cumulonimbus.

TAF: GBYD 151130Z 1512/1618 01006KT CAVOK

Observaciones y pronósticos meteorológicos de más de 4000 aeropuertos (mensajes METAR y TAF).

Los puntos amarillos y rojos representan las estaciones disponibles.

Ponga el ratón en el punto deseado para ver el nombre de la estación.

Haga clic para ver las observaciones y los pronósticos meteorológicos.

Para cambiar el mapa : haga clic en los botones verdes con una cruz de color negro para hacer un zoom, en el botón verde con un guión para alejar o en las flechas verdes para mapas adyacentes.


METAR-TAF: